createdAt,value
2022-09-02T00:01:24.489Z,99.90
2022-09-02T00:03:55.492Z,99.90
2022-09-02T00:06:23.001Z,99.90
2022-09-02T00:08:50.390Z,99.90
2022-09-02T00:11:21.637Z,99.90
2022-09-02T00:13:50.430Z,99.90
2022-09-02T00:16:19.049Z,99.90
2022-09-02T00:18:47.433Z,99.90
2022-09-02T00:21:16.005Z,99.90
2022-09-02T00:23:44.863Z,99.90
2022-09-02T00:26:13.768Z,99.90
2022-09-02T00:28:48.835Z,99.90
2022-09-02T00:31:24.970Z,99.90
2022-09-02T00:33:53.580Z,99.90
2022-09-02T00:36:21.561Z,99.90
2022-09-02T00:38:49.036Z,99.90
2022-09-02T00:41:18.770Z,99.90
2022-09-02T00:43:53.564Z,99.90
2022-09-02T00:46:25.033Z,99.90
2022-09-02T00:49:05.008Z,99.90
2022-09-02T00:51:42.876Z,99.90
2022-09-02T00:54:13.140Z,99.90
2022-09-02T00:56:43.738Z,99.90
2022-09-02T00:59:25.375Z,99.90
2022-09-02T01:01:52.835Z,99.90
2022-09-02T01:04:20.220Z,99.90
2022-09-02T01:06:48.658Z,99.90
2022-09-02T01:09:17.330Z,99.90
2022-09-02T01:11:48.517Z,99.90
2022-09-02T01:14:17.076Z,99.90
2022-09-02T01:16:52.267Z,99.90
2022-09-02T01:19:37.372Z,99.90
2022-09-02T01:22:17.017Z,99.90
2022-09-02T01:24:44.345Z,99.90
2022-09-02T01:27:20.034Z,99.90
2022-09-02T01:29:52.376Z,99.90
2022-09-02T01:32:21.587Z,99.90
2022-09-02T01:34:48.845Z,99.90
2022-09-02T01:37:16.928Z,99.90
2022-09-02T01:39:46.017Z,99.90
2022-09-02T01:42:13.639Z,99.90
2022-09-02T01:44:45.416Z,99.90
2022-09-02T01:47:20.413Z,99.90
2022-09-02T01:49:50.346Z,99.90
2022-09-02T01:52:18.966Z,99.90
2022-09-02T01:54:47.297Z,99.90
2022-09-02T01:57:14.994Z,99.90
2022-09-02T01:59:44.756Z,99.90
2022-09-02T02:02:14.591Z,99.90
2022-09-02T02:04:42.048Z,99.90
2022-09-02T02:07:09.671Z,99.90
2022-09-02T02:09:37.114Z,99.90
2022-09-02T02:12:06.345Z,99.90
2022-09-02T02:14:34.309Z,99.90
2022-09-02T02:17:02.069Z,99.90
2022-09-02T02:19:29.480Z,99.90
2022-09-02T02:21:59.266Z,99.90
2022-09-02T02:24:26.989Z,99.90
2022-09-02T02:26:55.056Z,99.90
2022-09-02T02:29:23.355Z,99.90
2022-09-02T02:31:51.330Z,99.90
2022-09-02T02:34:18.958Z,99.90
2022-09-02T02:36:47.599Z,99.90
2022-09-02T02:39:14.925Z,99.90
2022-09-02T02:41:44.836Z,99.90
2022-09-02T02:44:13.698Z,99.90
2022-09-02T02:46:41.190Z,99.90
2022-09-02T02:49:08.587Z,99.90
2022-09-02T02:51:36.491Z,99.90
2022-09-02T02:54:05.662Z,99.90
2022-09-02T02:56:33.308Z,99.90
2022-09-02T02:59:03.735Z,99.90
2022-09-02T03:01:33.878Z,99.90
2022-09-02T03:04:01.302Z,99.90
2022-09-02T03:06:29.869Z,99.90
2022-09-02T03:08:58.913Z,99.90
2022-09-02T03:11:28.045Z,99.90
2022-09-02T03:13:56.437Z,99.90
2022-09-02T03:16:23.802Z,99.90
2022-09-02T03:18:52.346Z,99.90
2022-09-02T03:21:20.200Z,99.90
2022-09-02T03:23:49.129Z,99.90
2022-09-02T03:26:20.689Z,99.90
2022-09-02T03:28:49.511Z,99.90
2022-09-02T03:31:20.617Z,99.90
2022-09-02T03:33:48.426Z,99.90
2022-09-02T03:36:30.260Z,99.90
2022-09-02T03:38:59.037Z,99.90
2022-09-02T03:41:28.020Z,99.90
2022-09-02T03:43:56.373Z,99.90
2022-09-02T03:46:23.960Z,99.90
2022-09-02T03:48:52.107Z,99.90
2022-09-02T03:51:22.048Z,99.90
2022-09-02T03:53:49.956Z,99.90
2022-09-02T03:56:17.867Z,99.90
2022-09-02T03:58:47.925Z,99.90
2022-09-02T04:01:23.769Z,99.90
2022-09-02T04:03:52.906Z,99.90
2022-09-02T04:06:22.721Z,99.90
2022-09-02T04:08:51.154Z,99.90
2022-09-02T04:11:21.487Z,99.90
2022-09-02T04:13:52.877Z,99.90
2022-09-02T04:16:34.964Z,99.90
2022-09-02T04:19:08.712Z,99.90
2022-09-02T04:21:39.610Z,99.90
2022-09-02T04:24:09.571Z,99.90
2022-09-02T04:26:44.964Z,99.90
2022-09-02T04:29:14.649Z,99.90
2022-09-02T04:31:43.500Z,99.90
2022-09-02T04:34:11.481Z,99.90
2022-09-02T04:36:40.627Z,99.90
2022-09-02T04:39:09.488Z,99.90
2022-09-02T04:41:38.331Z,99.90
2022-09-02T04:44:09.019Z,99.90
2022-09-02T04:46:40.327Z,99.90
2022-09-02T04:49:11.852Z,99.90
2022-09-02T04:51:41.376Z,99.90
2022-09-02T04:54:10.831Z,99.90
2022-09-02T04:56:41.151Z,99.90
2022-09-02T04:59:09.412Z,99.90
2022-09-02T05:01:39.071Z,99.90
2022-09-02T05:04:12.596Z,99.90
2022-09-02T05:06:44.834Z,99.90
2022-09-02T05:09:16.961Z,99.90
2022-09-02T05:11:48.907Z,99.90
2022-09-02T05:14:17.980Z,99.90
2022-09-02T05:16:46.128Z,99.90
2022-09-02T05:19:16.738Z,99.90
2022-09-02T05:21:48.721Z,99.90
2022-09-02T05:24:26.683Z,99.90
2022-09-02T05:26:56.046Z,99.90
2022-09-02T05:29:24.393Z,99.90
2022-09-02T05:31:53.721Z,99.90
2022-09-02T05:34:23.232Z,99.90
2022-09-02T05:36:53.113Z,99.90
2022-09-02T05:39:20.743Z,99.90
2022-09-02T05:41:49.096Z,99.90
2022-09-02T05:44:17.369Z,99.90
2022-09-02T05:46:48.906Z,99.90
2022-09-02T05:49:18.055Z,99.90
2022-09-02T05:51:53.222Z,99.90
2022-09-02T05:54:30.443Z,99.90
2022-09-02T05:57:08.824Z,99.90
2022-09-02T05:59:42.517Z,99.90
2022-09-02T06:02:15.137Z,99.90
2022-09-02T06:04:46.110Z,99.90
2022-09-02T06:07:14.871Z,99.90
2022-09-02T06:09:45.424Z,99.90
2022-09-02T06:12:15.797Z,99.90
2022-09-02T06:14:43.312Z,99.90
2022-09-02T06:17:11.411Z,99.90
2022-09-02T06:19:46.066Z,99.90
2022-09-02T06:22:13.827Z,99.90
2022-09-02T06:24:42.889Z,99.90
2022-09-02T06:27:16.502Z,99.90
2022-09-02T06:29:47.443Z,99.90
2022-09-02T06:32:19.427Z,99.90
2022-09-02T06:34:49.041Z,99.90
2022-09-02T06:37:17.089Z,99.90
2022-09-02T06:39:46.745Z,99.90
2022-09-02T06:42:19.788Z,99.90
2022-09-02T06:45:04.282Z,99.90
2022-09-02T06:47:33.093Z,99.90
2022-09-02T06:50:00.896Z,99.90
2022-09-02T06:52:28.869Z,99.90
2022-09-02T06:54:56.653Z,99.90
2022-09-02T06:57:24.683Z,99.90
2022-09-02T07:00:08.087Z,99.90
2022-09-02T07:02:36.696Z,99.90
2022-09-02T07:05:11.111Z,99.90
2022-09-02T07:07:42.673Z,99.90
2022-09-02T07:10:14.268Z,99.90
2022-09-02T07:12:45.438Z,99.90
2022-09-02T07:15:16.359Z,99.90
2022-09-02T07:17:45.165Z,99.90
2022-09-02T07:20:18.706Z,99.90
2022-09-02T07:22:55.887Z,99.90
2022-09-02T07:25:25.570Z,99.90
2022-09-02T07:27:54.767Z,99.90
2022-09-02T07:30:23.757Z,99.90
2022-09-02T07:32:58.372Z,99.90
2022-09-02T07:35:29.056Z,99.90
2022-09-02T07:37:57.050Z,99.90
2022-09-02T07:40:24.607Z,99.90
2022-09-02T07:42:52.968Z,99.90
2022-09-02T07:45:22.335Z,99.90
2022-09-02T07:47:50.668Z,99.90
2022-09-02T07:50:21.710Z,99.90
2022-09-02T07:52:55.392Z,99.90
2022-09-02T07:55:23.923Z,99.90
2022-09-02T07:57:55.400Z,99.90
2022-09-02T08:00:27.766Z,99.90
2022-09-02T08:03:00.920Z,99.90
2022-09-02T08:05:34.398Z,99.90
2022-09-02T08:08:02.467Z,99.90
2022-09-02T08:10:35.805Z,99.90
2022-09-02T08:13:05.953Z,99.90
2022-09-02T08:15:35.966Z,99.90
2022-09-02T08:18:03.978Z,99.90
2022-09-02T08:20:31.281Z,99.90
2022-09-02T08:23:11.017Z,99.90
2022-09-02T08:25:41.019Z,99.90
2022-09-02T08:28:08.753Z,99.90
2022-09-02T08:30:36.119Z,99.90
2022-09-02T08:33:03.477Z,99.90
2022-09-02T08:35:31.168Z,99.90
2022-09-02T08:38:01.534Z,99.90
2022-09-02T08:40:38.599Z,99.90
2022-09-02T08:43:19.223Z,99.90
2022-09-02T08:45:47.712Z,99.90
2022-09-02T08:48:59.445Z,99.90
2022-09-02T08:51:53.865Z,99.90
2022-09-02T08:54:39.785Z,99.90
2022-09-02T08:57:09.412Z,99.90
2022-09-02T08:59:38.223Z,99.90
2022-09-02T09:02:10.377Z,99.90
2022-09-02T09:05:06.384Z,99.90
2022-09-02T09:07:48.839Z,99.90
2022-09-02T09:10:21.894Z,99.90
2022-09-02T09:13:17.299Z,99.90
2022-09-02T09:15:57.813Z,99.90
2022-09-02T09:18:38.616Z,99.90
2022-09-02T09:21:08.354Z,99.90
2022-09-02T09:23:40.322Z,99.90
2022-09-02T09:26:12.008Z,99.90
2022-09-02T09:28:42.159Z,99.90
2022-09-02T09:31:31.334Z,99.90
2022-09-02T09:34:03.230Z,99.90
2022-09-02T09:36:42.438Z,99.90
2022-09-02T09:39:20.185Z,99.90
2022-09-02T09:41:49.355Z,99.90
2022-09-02T09:44:45.261Z,99.90
2022-09-02T09:47:23.085Z,99.90
2022-09-02T09:49:51.563Z,99.90
2022-09-02T09:52:28.797Z,99.90
2022-09-02T09:55:24.978Z,99.90
2022-09-02T09:57:54.853Z,99.90
2022-09-02T10:00:34.435Z,99.90
2022-09-02T10:03:06.819Z,99.90
2022-09-02T10:05:39.948Z,99.90
2022-09-02T10:08:22.024Z,99.90
2022-09-02T10:11:00.512Z,99.90
2022-09-02T10:13:34.141Z,99.90
2022-09-02T10:16:39.636Z,99.90
2022-09-02T10:19:38.684Z,99.90
2022-09-02T10:22:58.486Z,99.90
2022-09-02T10:25:43.412Z,99.50
2022-09-02T10:28:35.207Z,99.10
2022-09-02T10:31:32.400Z,98.90
2022-09-02T10:34:23.462Z,99.40
2022-09-02T10:37:12.882Z,98.60
2022-09-02T10:40:04.645Z,98.40
2022-09-02T10:42:41.126Z,97.70
2022-09-02T10:45:18.044Z,97.40
2022-09-02T10:48:01.689Z,96.40
2022-09-02T10:51:06.754Z,96.00
2022-09-02T10:53:36.789Z,95.60
2022-09-02T10:56:09.906Z,95.70
2022-09-02T10:58:43.129Z,95.60
2022-09-02T11:01:19.219Z,95.20
2022-09-02T11:04:12.871Z,94.50
2022-09-02T11:07:01.868Z,94.00
2022-09-02T11:09:56.439Z,93.70
2022-09-02T11:12:32.521Z,93.60
2022-09-02T11:16:04.727Z,93.50
2022-09-02T11:18:53.040Z,93.40
2022-09-02T11:21:46.814Z,92.80
2022-09-02T11:24:24.821Z,91.80
2022-09-02T11:27:42.223Z,90.80
2022-09-02T11:30:23.598Z,90.20
2022-09-02T11:33:15.780Z,88.50
2022-09-02T11:35:45.184Z,87.60
2022-09-02T11:38:34.111Z,86.50
2022-09-02T11:44:40.882Z,85.10
2022-09-02T11:47:26.387Z,83.50
2022-09-02T11:50:39.508Z,82.80
2022-09-02T11:53:28.140Z,81.70
2022-09-02T11:56:01.804Z,80.40
2022-09-02T11:58:42.737Z,79.40
2022-09-02T12:01:16.019Z,76.80
2022-09-02T12:04:34.507Z,76.90
2022-09-02T12:07:09.956Z,74.80
2022-09-02T12:09:56.925Z,75.70
2022-09-02T12:12:39.385Z,76.20
2022-09-02T12:15:08.546Z,74.10
2022-09-02T12:18:04.686Z,69.60
2022-09-02T12:20:38.896Z,68.90
2022-09-02T12:23:30.185Z,68.30
2022-09-02T12:26:07.267Z,68.20
2022-09-02T12:28:34.983Z,68.70
2022-09-02T12:31:07.948Z,68.30
2022-09-02T12:33:40.449Z,66.10
2022-09-02T12:36:11.149Z,63.80
2022-09-02T12:38:42.945Z,63.90
2022-09-02T12:41:20.862Z,62.50
2022-09-02T12:44:22.132Z,63.10
2022-09-02T12:47:06.373Z,63.80
2022-09-02T12:49:33.887Z,65.20
2022-09-02T12:52:12.923Z,62.80
2022-09-02T12:54:47.847Z,63.20
2022-09-02T12:57:17.582Z,61.80
2022-09-02T12:59:46.766Z,61.50
2022-09-02T13:02:32.192Z,60.50
2022-09-02T13:05:25.700Z,59.40
2022-09-02T13:08:21.381Z,59.70
2022-09-02T13:11:07.069Z,60.00
2022-09-02T13:13:40.162Z,60.60
2022-09-02T13:16:31.082Z,61.20
2022-09-02T13:19:23.954Z,62.20
2022-09-02T13:22:08.955Z,60.00
2022-09-02T13:25:08.104Z,58.60
2022-09-02T13:27:47.643Z,57.30
2022-09-02T13:30:49.912Z,55.60
2022-09-02T13:33:17.775Z,54.60
2022-09-02T13:35:45.580Z,54.10
2022-09-02T13:38:16.406Z,53.60
2022-09-02T13:40:46.338Z,51.90
2022-09-02T13:43:13.731Z,50.40
2022-09-02T13:45:42.135Z,49.20
2022-09-02T13:48:16.955Z,48.60
2022-09-02T13:50:46.780Z,48.50
2022-09-02T13:56:12.188Z,48.40
2022-09-02T13:58:52.293Z,49.00
2022-09-02T14:01:29.338Z,47.10
2022-09-02T14:04:00.284Z,46.00
2022-09-02T14:06:37.405Z,45.70
2022-09-02T14:09:08.633Z,44.90
2022-09-02T14:11:42.788Z,44.40
2022-09-02T14:14:15.583Z,43.70
2022-09-02T14:16:43.166Z,43.20
2022-09-02T14:19:15.216Z,43.00
2022-09-02T14:21:56.981Z,42.80
2022-09-02T14:24:30.056Z,41.90
2022-09-02T14:27:00.751Z,41.50
2022-09-02T14:29:32.227Z,41.40
2022-09-02T14:32:29.209Z,40.80
2022-09-02T14:35:19.873Z,41.10
2022-09-02T14:37:59.668Z,41.00
2022-09-02T14:40:43.492Z,40.40
2022-09-02T14:43:14.907Z,40.00
2022-09-02T14:45:48.012Z,40.60
2022-09-02T14:48:22.598Z,40.70
2022-09-02T14:51:02.131Z,40.60
2022-09-02T14:53:30.516Z,40.30
2022-09-02T14:55:58.218Z,40.30
2022-09-02T14:58:27.819Z,40.00
2022-09-02T15:00:58.197Z,40.40
2022-09-02T15:03:26.254Z,40.30
2022-09-02T15:05:53.988Z,40.00
2022-09-02T15:08:22.009Z,40.00
2022-09-02T15:10:50.547Z,39.90
2022-09-02T15:13:32.871Z,40.00
2022-09-02T15:16:00.854Z,40.40
2022-09-02T15:18:28.213Z,41.10
2022-09-02T15:20:55.832Z,41.20
2022-09-02T15:23:24.425Z,40.50
2022-09-02T15:25:54.070Z,40.40
2022-09-02T15:28:21.336Z,40.30
2022-09-02T15:30:48.858Z,40.00
2022-09-02T15:33:22.097Z,39.50
2022-09-02T15:35:49.409Z,40.00
2022-09-02T15:38:17.284Z,39.80
2022-09-02T15:40:45.443Z,40.20
2022-09-02T15:43:13.854Z,40.10
2022-09-02T15:45:48.552Z,39.30
2022-09-02T15:48:16.125Z,38.60
2022-09-02T15:50:46.441Z,39.00
2022-09-02T15:53:15.179Z,39.70
2022-09-02T15:55:42.661Z,39.10
2022-09-02T15:58:10.271Z,39.40
2022-09-02T16:00:37.609Z,39.50
2022-09-02T16:03:04.958Z,39.80
2022-09-02T16:05:32.468Z,39.80
2022-09-02T16:08:00.022Z,39.70
2022-09-02T16:10:27.284Z,40.00
2022-09-02T16:12:54.569Z,40.10
2022-09-02T16:15:21.842Z,40.10
2022-09-02T16:17:49.695Z,39.90
2022-09-02T16:20:21.092Z,40.00
2022-09-02T16:22:49.337Z,39.80
2022-09-02T16:25:16.774Z,40.40
2022-09-02T16:27:52.880Z,40.20
2022-09-02T16:30:20.912Z,39.40
2022-09-02T16:32:50.750Z,40.10
2022-09-02T16:35:18.007Z,40.10
2022-09-02T16:37:45.313Z,39.90
2022-09-02T16:40:13.418Z,40.00
2022-09-02T16:42:40.649Z,39.70
2022-09-02T16:45:08.558Z,40.40
2022-09-02T16:47:36.017Z,40.50
2022-09-02T16:50:04.125Z,41.00
2022-09-02T16:52:34.947Z,41.00
2022-09-02T16:55:02.249Z,41.30
2022-09-02T16:57:30.034Z,41.50
2022-09-02T16:59:57.386Z,41.70
2022-09-02T17:02:24.693Z,42.30
2022-09-02T17:04:52.026Z,43.20
2022-09-02T17:07:20.658Z,43.20
2022-09-02T17:09:47.888Z,43.30
2022-09-02T17:12:15.109Z,43.90
2022-09-02T17:14:42.470Z,44.30
2022-09-02T17:17:14.910Z,44.50
2022-09-02T17:19:42.167Z,44.30
2022-09-02T17:22:09.599Z,45.00
2022-09-02T17:24:39.053Z,45.10
2022-09-02T17:27:06.360Z,45.80
2022-09-02T17:29:50.022Z,46.40
2022-09-02T17:32:18.743Z,46.90
2022-09-02T17:34:46.347Z,47.30
2022-09-02T17:37:13.686Z,48.00
2022-09-02T17:39:41.024Z,49.50
2022-09-02T17:42:08.539Z,51.30
2022-09-02T17:44:38.775Z,52.80
2022-09-02T17:47:11.803Z,54.20
2022-09-02T17:49:41.385Z,55.80
2022-09-02T17:52:09.391Z,57.40
2022-09-02T17:54:38.058Z,58.70
2022-09-02T17:57:11.995Z,60.10
2022-09-02T17:59:51.404Z,61.40
2022-09-02T18:02:37.660Z,62.90
2022-09-02T18:05:22.789Z,64.10
2022-09-02T18:08:04.509Z,65.00
2022-09-02T18:10:56.622Z,66.10
2022-09-02T18:13:43.691Z,67.00
2022-09-02T18:16:26.449Z,67.90
2022-09-02T18:19:27.327Z,68.50
2022-09-02T18:22:07.082Z,69.00
2022-09-02T18:24:34.333Z,69.70
2022-09-02T18:27:33.026Z,70.30
2022-09-02T18:30:11.511Z,70.60
2022-09-02T18:33:06.736Z,71.00
2022-09-02T18:35:36.890Z,71.70
2022-09-02T18:38:13.940Z,72.60
2022-09-02T18:40:53.321Z,72.60
2022-09-02T18:43:25.728Z,73.60
2022-09-02T18:45:56.567Z,74.40
2022-09-02T18:48:36.074Z,74.80
2022-09-02T18:51:25.473Z,75.40
2022-09-02T18:54:01.403Z,76.40
2022-09-02T18:56:32.888Z,77.10
2022-09-02T18:59:10.971Z,78.20
2022-09-02T19:01:46.311Z,78.80
2022-09-02T19:04:15.325Z,79.30
2022-09-02T19:06:42.743Z,80.10
2022-09-02T19:09:15.844Z,81.00
2022-09-02T19:11:43.290Z,81.90
2022-09-02T19:14:31.415Z,82.80
2022-09-02T19:16:59.191Z,83.70
2022-09-02T19:19:29.763Z,85.00
2022-09-02T19:22:05.961Z,85.90
2022-09-02T19:24:47.390Z,87.20
2022-09-02T19:27:20.475Z,88.40
2022-09-02T19:29:52.748Z,89.30
2022-09-02T19:32:25.910Z,90.30
2022-09-02T19:34:53.975Z,90.90
2022-09-02T19:37:21.357Z,91.50
2022-09-02T19:39:54.258Z,91.80
2022-09-02T19:42:24.080Z,92.40
2022-09-02T19:44:52.283Z,92.90
2022-09-02T19:48:05.001Z,93.20
2022-09-02T19:50:07.743Z,93.40
2022-09-02T19:52:45.734Z,93.90
2022-09-02T19:55:16.386Z,94.60
2022-09-02T19:57:44.869Z,95.10
2022-09-02T20:00:14.086Z,95.50
2022-09-02T20:02:41.576Z,95.90
2022-09-02T20:05:10.475Z,96.30
2022-09-02T20:07:38.091Z,96.90
2022-09-02T20:10:07.327Z,97.40
2022-09-02T20:12:35.949Z,97.70
2022-09-02T20:15:04.992Z,98.10
2022-09-02T20:17:32.652Z,98.40
2022-09-02T20:20:01.432Z,98.80
2022-09-02T20:22:30.246Z,99.20
2022-09-02T20:24:58.266Z,99.40
2022-09-02T20:27:40.055Z,99.80
2022-09-02T20:30:16.605Z,99.90
2022-09-02T20:33:00.024Z,99.90
2022-09-02T20:36:21.115Z,99.90
2022-09-02T20:39:12.475Z,99.90
2022-09-02T20:41:55.339Z,99.90
2022-09-02T20:44:34.627Z,99.90
2022-09-02T20:47:31.785Z,99.90
2022-09-02T20:50:06.167Z,99.90
2022-09-02T20:52:40.187Z,99.90
2022-09-02T20:55:26.378Z,99.90
2022-09-02T20:58:24.162Z,99.90
2022-09-02T21:01:18.529Z,99.90
2022-09-02T21:04:18.055Z,99.90
2022-09-02T21:06:54.016Z,99.90
2022-09-02T21:09:53.030Z,99.90
2022-09-02T21:12:37.219Z,99.90
2022-09-02T21:15:23.364Z,99.90
2022-09-02T21:18:03.786Z,99.90
2022-09-02T21:20:51.002Z,99.90
2022-09-02T21:23:27.442Z,99.90
2022-09-02T21:26:04.113Z,99.90
2022-09-02T21:28:51.116Z,99.90
2022-09-02T21:31:35.591Z,99.90
2022-09-02T21:34:13.780Z,99.90
2022-09-02T21:36:41.729Z,99.90
2022-09-02T21:39:15.459Z,99.90
2022-09-02T21:41:54.438Z,99.90
2022-09-02T21:45:06.894Z,99.90
2022-09-02T21:47:36.880Z,99.90
2022-09-02T21:50:07.454Z,99.90
2022-09-02T21:52:55.210Z,99.90
2022-09-02T21:55:26.722Z,99.90
2022-09-02T21:58:08.800Z,99.90
2022-09-02T22:00:39.260Z,99.90
2022-09-02T22:03:37.264Z,99.90
2022-09-02T22:06:28.647Z,99.90
2022-09-02T22:09:08.816Z,99.90
2022-09-02T22:11:37.561Z,99.90
2022-09-02T22:14:16.238Z,99.90
2022-09-02T22:16:54.047Z,99.90
2022-09-02T22:19:30.387Z,99.90
2022-09-02T22:22:11.906Z,99.90
2022-09-02T22:24:40.748Z,99.90
2022-09-02T22:27:27.999Z,99.90
2022-09-02T22:30:14.521Z,99.90
2022-09-02T22:32:46.730Z,99.90
2022-09-02T22:35:36.529Z,99.90
2022-09-02T22:38:26.259Z,99.90
2022-09-02T22:41:11.592Z,99.90
2022-09-02T22:43:58.128Z,99.90
2022-09-02T22:46:54.629Z,99.90
2022-09-02T22:49:49.398Z,99.90
2022-09-02T22:52:54.907Z,99.90
2022-09-02T22:55:50.772Z,99.90
2022-09-02T22:58:31.030Z,99.90
2022-09-02T23:01:19.475Z,99.90
2022-09-02T23:04:23.845Z,99.90
2022-09-02T23:06:55.351Z,99.90
2022-09-02T23:09:22.676Z,99.90
2022-09-02T23:12:14.172Z,99.90
2022-09-02T23:15:15.047Z,99.90
2022-09-02T23:18:08.014Z,99.90
2022-09-02T23:20:49.801Z,99.90
2022-09-02T23:23:38.989Z,99.90
2022-09-02T23:26:26.099Z,99.90
2022-09-02T23:29:03.018Z,99.90
2022-09-02T23:31:51.006Z,99.90
2022-09-02T23:34:24.904Z,99.90
2022-09-02T23:36:58.101Z,99.90
2022-09-02T23:39:46.931Z,99.90
2022-09-02T23:42:14.270Z,99.90
2022-09-02T23:44:42.400Z,99.90
2022-09-02T23:47:37.799Z,99.90
2022-09-02T23:50:05.459Z,99.90
2022-09-02T23:52:56.675Z,99.90
2022-09-02T23:55:40.289Z,99.90
2022-09-02T23:58:37.454Z,99.90
